sensor_id;sensor_type;location;lat;lon;timestamp;temperature;humidity
52209;DHT22;38507;53.132;6.394;2023-07-13T00:02:15;16.00;99.90
52209;DHT22;38507;53.132;6.394;2023-07-13T00:04:40;16.00;99.90
52209;DHT22;38507;53.132;6.394;2023-07-13T00:07:07;16.00;99.90
52209;DHT22;38507;53.132;6.394;2023-07-13T00:09:33;16.00;99.90
52209;DHT22;38507;53.132;6.394;2023-07-13T00:11:58;15.90;99.90
52209;DHT22;38507;53.132;6.394;2023-07-13T00:14:26;16.00;99.90
52209;DHT22;38507;53.132;6.394;2023-07-13T00:16:52;16.00;99.90
52209;DHT22;38507;53.132;6.394;2023-07-13T00:19:18;16.00;99.90
52209;DHT22;38507;53.132;6.394;2023-07-13T00:21:43;16.00;99.90
52209;DHT22;38507;53.132;6.394;2023-07-13T00:24:12;16.00;99.90
52209;DHT22;38507;53.132;6.394;2023-07-13T00:26:38;16.00;99.90
52209;DHT22;38507;53.132;6.394;2023-07-13T00:29:04;16.00;99.90
52209;DHT22;38507;53.132;6.394;2023-07-13T00:31:34;16.00;99.90
52209;DHT22;38507;53.132;6.394;2023-07-13T00:34:01;16.00;99.90
52209;DHT22;38507;53.132;6.394;2023-07-13T00:36:27;15.90;99.90
52209;DHT22;38507;53.132;6.394;2023-07-13T00:38:53;16.00;99.90
52209;DHT22;38507;53.132;6.394;2023-07-13T00:41:19;15.90;99.90
52209;DHT22;38507;53.132;6.394;2023-07-13T00:43:45;16.00;99.90
52209;DHT22;38507;53.132;6.394;2023-07-13T00:46:20;16.00;99.90
52209;DHT22;38507;53.132;6.394;2023-07-13T00:48:48;16.00;99.90
52209;DHT22;38507;53.132;6.394;2023-07-13T00:51:19;16.00;99.90
52209;DHT22;38507;53.132;6.394;2023-07-13T00:53:46;15.90;99.90
52209;DHT22;38507;53.132;6.394;2023-07-13T00:56:12;16.00;99.90
52209;DHT22;38507;53.132;6.394;2023-07-13T00:58:38;15.90;99.90
52209;DHT22;38507;53.132;6.394;2023-07-13T01:01:03;15.90;99.90
52209;DHT22;38507;53.132;6.394;2023-07-13T01:03:29;15.80;99.90
52209;DHT22;38507;53.132;6.394;2023-07-13T01:05:55;15.80;99.90
52209;DHT22;38507;53.132;6.394;2023-07-13T01:08:21;15.70;99.90
52209;DHT22;38507;53.132;6.394;2023-07-13T01:10:57;15.80;99.90
52209;DHT22;38507;53.132;6.394;2023-07-13T01:13:24;15.70;99.90
52209;DHT22;38507;53.132;6.394;2023-07-13T01:15:51;15.70;99.90
52209;DHT22;38507;53.132;6.394;2023-07-13T01:18:23;15.70;99.90
52209;DHT22;38507;53.132;6.394;2023-07-13T01:21:01;15.70;99.90
52209;DHT22;38507;53.132;6.394;2023-07-13T01:23:27;15.70;99.90
52209;DHT22;38507;53.132;6.394;2023-07-13T01:25:54;15.70;99.90
52209;DHT22;38507;53.132;6.394;2023-07-13T01:28:21;15.70;99.90
52209;DHT22;38507;53.132;6.394;2023-07-13T01:30:47;15.60;99.90
52209;DHT22;38507;53.132;6.394;2023-07-13T01:33:17;15.70;99.90
52209;DHT22;38507;53.132;6.394;2023-07-13T01:35:44;15.70;99.90
52209;DHT22;38507;53.132;6.394;2023-07-13T01:38:13;15.70;99.90
52209;DHT22;38507;53.132;6.394;2023-07-13T01:40:39;15.60;99.90
52209;DHT22;38507;53.132;6.394;2023-07-13T01:43:05;15.70;99.90
52209;DHT22;38507;53.132;6.394;2023-07-13T01:45:31;15.70;99.90
52209;DHT22;38507;53.132;6.394;2023-07-13T01:47:57;15.70;99.90
52209;DHT22;38507;53.132;6.394;2023-07-13T01:50:24;15.70;99.90
52209;DHT22;38507;53.132;6.394;2023-07-13T01:52:49;15.70;99.90
52209;DHT22;38507;53.132;6.394;2023-07-13T01:55:15;15.70;99.90
52209;DHT22;38507;53.132;6.394;2023-07-13T01:57:41;15.70;99.90
52209;DHT22;38507;53.132;6.394;2023-07-13T02:00:08;15.70;99.90
52209;DHT22;38507;53.132;6.394;2023-07-13T02:02:34;15.70;99.90
52209;DHT22;38507;53.132;6.394;2023-07-13T02:05:00;15.70;99.90
52209;DHT22;38507;53.132;6.394;2023-07-13T02:07:26;15.60;99.90
52209;DHT22;38507;53.132;6.394;2023-07-13T02:09:51;15.70;99.90
52209;DHT22;38507;53.132;6.394;2023-07-13T02:12:17;15.60;99.90
52209;DHT22;38507;53.132;6.394;2023-07-13T02:14:42;15.60;99.90
52209;DHT22;38507;53.132;6.394;2023-07-13T02:17:09;15.60;99.90
52209;DHT22;38507;53.132;6.394;2023-07-13T02:19:35;15.60;99.90
52209;DHT22;38507;53.132;6.394;2023-07-13T02:22:01;15.60;99.90
52209;DHT22;38507;53.132;6.394;2023-07-13T02:24:27;15.50;99.90
52209;DHT22;38507;53.132;6.394;2023-07-13T02:26:53;15.50;99.90
52209;DHT22;38507;53.132;6.394;2023-07-13T02:29:18;15.50;99.90
52209;DHT22;38507;53.132;6.394;2023-07-13T02:31:44;15.50;99.90
52209;DHT22;38507;53.132;6.394;2023-07-13T02:34:10;15.50;99.90
52209;DHT22;38507;53.132;6.394;2023-07-13T02:36:35;15.50;99.90
52209;DHT22;38507;53.132;6.394;2023-07-13T02:39:03;15.40;99.90
52209;DHT22;38507;53.132;6.394;2023-07-13T02:41:29;15.40;99.90
52209;DHT22;38507;53.132;6.394;2023-07-13T02:43:54;15.40;99.90
52209;DHT22;38507;53.132;6.394;2023-07-13T02:46:29;15.30;99.90
52209;DHT22;38507;53.132;6.394;2023-07-13T02:48:54;15.30;99.90
52209;DHT22;38507;53.132;6.394;2023-07-13T02:51:20;15.40;99.90
52209;DHT22;38507;53.132;6.394;2023-07-13T02:53:46;15.30;99.90
52209;DHT22;38507;53.132;6.394;2023-07-13T02:56:12;15.30;99.90
52209;DHT22;38507;53.132;6.394;2023-07-13T02:58:37;15.30;99.90
52209;DHT22;38507;53.132;6.394;2023-07-13T03:01:11;15.30;99.90
52209;DHT22;38507;53.132;6.394;2023-07-13T03:03:37;15.30;99.90
52209;DHT22;38507;53.132;6.394;2023-07-13T03:06:04;15.20;99.90
52209;DHT22;38507;53.132;6.394;2023-07-13T03:08:31;15.20;99.90
52209;DHT22;38507;53.132;6.394;2023-07-13T03:11:01;15.20;99.90
52209;DHT22;38507;53.132;6.394;2023-07-13T03:13:27;15.20;99.90
52209;DHT22;38507;53.132;6.394;2023-07-13T03:15:53;15.20;99.90
52209;DHT22;38507;53.132;6.394;2023-07-13T03:18:19;15.20;99.90
52209;DHT22;38507;53.132;6.394;2023-07-13T03:20:44;15.10;99.90
52209;DHT22;38507;53.132;6.394;2023-07-13T03:23:10;15.10;99.90
52209;DHT22;38507;53.132;6.394;2023-07-13T03:25:36;15.20;99.90
52209;DHT22;38507;53.132;6.394;2023-07-13T03:28:01;15.10;99.90
52209;DHT22;38507;53.132;6.394;2023-07-13T03:30:27;15.10;99.90
52209;DHT22;38507;53.132;6.394;2023-07-13T03:32:53;15.20;99.90
52209;DHT22;38507;53.132;6.394;2023-07-13T03:35:18;15.20;99.90
52209;DHT22;38507;53.132;6.394;2023-07-13T03:37:44;15.20;99.90
52209;DHT22;38507;53.132;6.394;2023-07-13T03:40:11;15.20;99.90
52209;DHT22;38507;53.132;6.394;2023-07-13T03:42:37;15.20;99.90
52209;DHT22;38507;53.132;6.394;2023-07-13T03:45:02;15.20;99.90
52209;DHT22;38507;53.132;6.394;2023-07-13T03:47:28;15.30;99.90
52209;DHT22;38507;53.132;6.394;2023-07-13T03:49:54;15.30;99.90
52209;DHT22;38507;53.132;6.394;2023-07-13T03:52:19;15.30;99.90
52209;DHT22;38507;53.132;6.394;2023-07-13T03:54:46;15.30;99.90
52209;DHT22;38507;53.132;6.394;2023-07-13T03:57:11;15.30;99.90
52209;DHT22;38507;53.132;6.394;2023-07-13T03:59:37;15.30;99.90
52209;DHT22;38507;53.132;6.394;2023-07-13T04:02:02;15.30;99.90
52209;DHT22;38507;53.132;6.394;2023-07-13T04:04:29;15.30;99.90
52209;DHT22;38507;53.132;6.394;2023-07-13T04:06:59;15.40;99.90
52209;DHT22;38507;53.132;6.394;2023-07-13T04:09:25;15.40;99.90
52209;DHT22;38507;53.132;6.394;2023-07-13T04:11:51;15.40;99.90
52209;DHT22;38507;53.132;6.394;2023-07-13T04:14:17;15.40;99.90
52209;DHT22;38507;53.132;6.394;2023-07-13T04:16:43;15.40;99.90
52209;DHT22;38507;53.132;6.394;2023-07-13T04:19:09;15.40;99.90
52209;DHT22;38507;53.132;6.394;2023-07-13T04:21:36;15.50;99.90
52209;DHT22;38507;53.132;6.394;2023-07-13T04:24:03;15.50;99.90
52209;DHT22;38507;53.132;6.394;2023-07-13T04:26:29;15.50;99.90
52209;DHT22;38507;53.132;6.394;2023-07-13T04:28:56;15.60;99.90
52209;DHT22;38507;53.132;6.394;2023-07-13T04:31:22;15.60;99.90
52209;DHT22;38507;53.132;6.394;2023-07-13T04:33:49;15.60;99.90
52209;DHT22;38507;53.132;6.394;2023-07-13T04:36:16;15.60;99.90
52209;DHT22;38507;53.132;6.394;2023-07-13T04:38:42;15.70;99.90
52209;DHT22;38507;53.132;6.394;2023-07-13T04:41:08;15.70;99.90
52209;DHT22;38507;53.132;6.394;2023-07-13T04:43:35;15.70;99.90
52209;DHT22;38507;53.132;6.394;2023-07-13T04:46:06;15.80;99.90
52209;DHT22;38507;53.132;6.394;2023-07-13T04:48:31;15.80;99.90
52209;DHT22;38507;53.132;6.394;2023-07-13T04:50:58;15.90;99.90
52209;DHT22;38507;53.132;6.394;2023-07-13T04:53:24;16.00;99.90
52209;DHT22;38507;53.132;6.394;2023-07-13T04:55:51;16.00;99.90
52209;DHT22;38507;53.132;6.394;2023-07-13T04:58:16;16.00;99.90
52209;DHT22;38507;53.132;6.394;2023-07-13T05:00:42;16.10;99.90
52209;DHT22;38507;53.132;6.394;2023-07-13T05:03:08;16.10;99.90
52209;DHT22;38507;53.132;6.394;2023-07-13T05:05:34;16.10;99.90
52209;DHT22;38507;53.132;6.394;2023-07-13T05:08:00;16.10;99.90
52209;DHT22;38507;53.132;6.394;2023-07-13T05:10:25;16.10;99.90
52209;DHT22;38507;53.132;6.394;2023-07-13T05:12:51;16.20;99.90
52209;DHT22;38507;53.132;6.394;2023-07-13T05:15:17;16.20;99.90
52209;DHT22;38507;53.132;6.394;2023-07-13T05:17:48;16.20;99.90
52209;DHT22;38507;53.132;6.394;2023-07-13T05:20:14;16.30;99.90
52209;DHT22;38507;53.132;6.394;2023-07-13T05:22:40;16.30;99.90
52209;DHT22;38507;53.132;6.394;2023-07-13T05:25:07;16.30;99.90
52209;DHT22;38507;53.132;6.394;2023-07-13T05:27:34;16.40;99.90
52209;DHT22;38507;53.132;6.394;2023-07-13T05:30:00;16.50;99.90
52209;DHT22;38507;53.132;6.394;2023-07-13T05:32:26;16.60;99.90
52209;DHT22;38507;53.132;6.394;2023-07-13T05:34:51;16.60;99.90
52209;DHT22;38507;53.132;6.394;2023-07-13T05:37:17;16.70;99.90
52209;DHT22;38507;53.132;6.394;2023-07-13T05:39:43;16.80;99.90
52209;DHT22;38507;53.132;6.394;2023-07-13T05:42:09;16.80;99.90
52209;DHT22;38507;53.132;6.394;2023-07-13T05:44:34;16.90;99.90
52209;DHT22;38507;53.132;6.394;2023-07-13T05:47:00;17.00;99.90
52209;DHT22;38507;53.132;6.394;2023-07-13T05:49:26;17.00;99.90
52209;DHT22;38507;53.132;6.394;2023-07-13T05:51:51;17.10;99.90
52209;DHT22;38507;53.132;6.394;2023-07-13T05:54:17;17.20;99.90
52209;DHT22;38507;53.132;6.394;2023-07-13T05:56:43;17.30;99.90
52209;DHT22;38507;53.132;6.394;2023-07-13T05:59:08;17.30;99.90
52209;DHT22;38507;53.132;6.394;2023-07-13T06:01:34;17.40;99.90
52209;DHT22;38507;53.132;6.394;2023-07-13T06:04:00;17.50;99.90
52209;DHT22;38507;53.132;6.394;2023-07-13T06:06:25;17.50;99.90
52209;DHT22;38507;53.132;6.394;2023-07-13T06:08:51;17.70;99.90
52209;DHT22;38507;53.132;6.394;2023-07-13T06:11:22;17.80;99.90
52209;DHT22;38507;53.132;6.394;2023-07-13T06:13:48;17.80;99.90
52209;DHT22;38507;53.132;6.394;2023-07-13T06:16:15;17.90;99.90
52209;DHT22;38507;53.132;6.394;2023-07-13T06:18:41;17.90;99.90
52209;DHT22;38507;53.132;6.394;2023-07-13T06:21:12;18.10;99.90
52209;DHT22;38507;53.132;6.394;2023-07-13T06:23:38;18.10;99.90
52209;DHT22;38507;53.132;6.394;2023-07-13T06:26:04;18.20;99.90
52209;DHT22;38507;53.132;6.394;2023-07-13T06:28:31;18.30;99.90
52209;DHT22;38507;53.132;6.394;2023-07-13T06:30:57;18.30;99.90
52209;DHT22;38507;53.132;6.394;2023-07-13T06:33:23;18.40;99.90
52209;DHT22;38507;53.132;6.394;2023-07-13T06:35:49;18.50;99.90
52209;DHT22;38507;53.132;6.394;2023-07-13T06:38:14;18.50;99.90
52209;DHT22;38507;53.132;6.394;2023-07-13T06:40:40;18.60;99.90
52209;DHT22;38507;53.132;6.394;2023-07-13T06:43:06;18.80;99.90
52209;DHT22;38507;53.132;6.394;2023-07-13T06:45:40;18.90;99.90
52209;DHT22;38507;53.132;6.394;2023-07-13T06:48:06;19.10;99.90
52209;DHT22;38507;53.132;6.394;2023-07-13T06:50:31;19.20;99.90
52209;DHT22;38507;53.132;6.394;2023-07-13T06:52:58;19.40;99.90
52209;DHT22;38507;53.132;6.394;2023-07-13T06:55:25;19.60;99.90
52209;DHT22;38507;53.132;6.394;2023-07-13T06:57:51;19.70;99.90
52209;DHT22;38507;53.132;6.394;2023-07-13T07:00:16;19.80;99.90
52209;DHT22;38507;53.132;6.394;2023-07-13T07:02:42;19.70;99.90
52209;DHT22;38507;53.132;6.394;2023-07-13T07:05:08;19.60;99.90
52209;DHT22;38507;53.132;6.394;2023-07-13T07:07:33;19.60;99.90
52209;DHT22;38507;53.132;6.394;2023-07-13T07:09:59;19.70;99.90
52209;DHT22;38507;53.132;6.394;2023-07-13T07:12:25;19.80;99.90
52209;DHT22;38507;53.132;6.394;2023-07-13T07:14:50;19.60;99.90
52209;DHT22;38507;53.132;6.394;2023-07-13T07:17:16;19.50;99.90
52209;DHT22;38507;53.132;6.394;2023-07-13T07:19:42;19.40;99.90
52209;DHT22;38507;53.132;6.394;2023-07-13T07:22:07;19.40;99.90
52209;DHT22;38507;53.132;6.394;2023-07-13T07:24:33;19.30;99.90
52209;DHT22;38507;53.132;6.394;2023-07-13T07:26:58;19.30;99.90
52209;DHT22;38507;53.132;6.394;2023-07-13T07:29:24;19.30;99.90
52209;DHT22;38507;53.132;6.394;2023-07-13T07:31:52;19.10;99.90
52209;DHT22;38507;53.132;6.394;2023-07-13T07:34:18;19.00;99.90
52209;DHT22;38507;53.132;6.394;2023-07-13T07:36:43;18.90;99.90
52209;DHT22;38507;53.132;6.394;2023-07-13T07:39:09;18.90;99.90
52209;DHT22;38507;53.132;6.394;2023-07-13T07:41:35;18.90;99.90
52209;DHT22;38507;53.132;6.394;2023-07-13T07:44:00;18.80;99.90
52209;DHT22;38507;53.132;6.394;2023-07-13T07:46:26;18.70;99.90
52209;DHT22;38507;53.132;6.394;2023-07-13T07:48:52;18.50;99.90
52209;DHT22;38507;53.132;6.394;2023-07-13T07:51:17;18.30;99.90
52209;DHT22;38507;53.132;6.394;2023-07-13T07:53:43;18.30;99.90
52209;DHT22;38507;53.132;6.394;2023-07-13T07:56:08;18.10;99.90
52209;DHT22;38507;53.132;6.394;2023-07-13T07:58:35;18.10;99.90
52209;DHT22;38507;53.132;6.394;2023-07-13T08:01:05;18.10;99.90
52209;DHT22;38507;53.132;6.394;2023-07-13T08:03:31;18.10;99.90
52209;DHT22;38507;53.132;6.394;2023-07-13T08:05:58;18.20;99.90
52209;DHT22;38507;53.132;6.394;2023-07-13T08:08:24;18.30;99.90
52209;DHT22;38507;53.132;6.394;2023-07-13T08:10:49;18.40;99.90
52209;DHT22;38507;53.132;6.394;2023-07-13T08:13:15;18.50;99.90
52209;DHT22;38507;53.132;6.394;2023-07-13T08:15:41;18.60;99.90
52209;DHT22;38507;53.132;6.394;2023-07-13T08:18:06;18.80;99.90
52209;DHT22;38507;53.132;6.394;2023-07-13T08:20:39;18.90;99.90
52209;DHT22;38507;53.132;6.394;2023-07-13T08:23:06;19.00;99.90
52209;DHT22;38507;53.132;6.394;2023-07-13T08:25:31;19.20;99.90
52209;DHT22;38507;53.132;6.394;2023-07-13T08:27:57;19.40;99.90
52209;DHT22;38507;53.132;6.394;2023-07-13T08:30:23;19.40;99.90
52209;DHT22;38507;53.132;6.394;2023-07-13T08:32:48;19.40;99.90
52209;DHT22;38507;53.132;6.394;2023-07-13T08:35:15;19.40;99.90
52209;DHT22;38507;53.132;6.394;2023-07-13T08:37:41;19.40;99.90
52209;DHT22;38507;53.132;6.394;2023-07-13T08:40:10;19.50;99.90
52209;DHT22;38507;53.132;6.394;2023-07-13T08:42:37;19.70;99.90
52209;DHT22;38507;53.132;6.394;2023-07-13T08:47:48;20.00;99.90
52209;DHT22;38507;53.132;6.394;2023-07-13T08:50:20;20.10;99.90
52209;DHT22;38507;53.132;6.394;2023-07-13T08:52:48;20.00;99.90
52209;DHT22;38507;53.132;6.394;2023-07-13T08:55:46;20.20;99.90
52209;DHT22;38507;53.132;6.394;2023-07-13T08:58:15;20.50;99.90
52209;DHT22;38507;53.132;6.394;2023-07-13T09:03:50;21.00;99.90
52209;DHT22;38507;53.132;6.394;2023-07-13T09:06:23;20.80;99.90
52209;DHT22;38507;53.132;6.394;2023-07-13T09:09:12;20.80;99.90
52209;DHT22;38507;53.132;6.394;2023-07-13T09:11:56;20.80;99.90
52209;DHT22;38507;53.132;6.394;2023-07-13T09:14:37;20.70;99.90
52209;DHT22;38507;53.132;6.394;2023-07-13T09:17:14;20.60;99.90
52209;DHT22;38507;53.132;6.394;2023-07-13T09:19:42;20.50;99.90
52209;DHT22;38507;53.132;6.394;2023-07-13T09:22:14;20.40;99.90
52209;DHT22;38507;53.132;6.394;2023-07-13T09:24:59;20.20;99.90
52209;DHT22;38507;53.132;6.394;2023-07-13T09:27:38;20.30;99.90
52209;DHT22;38507;53.132;6.394;2023-07-13T09:30:13;20.30;99.90
52209;DHT22;38507;53.132;6.394;2023-07-13T09:32:47;20.30;99.90
52209;DHT22;38507;53.132;6.394;2023-07-13T09:35:18;20.40;99.90
52209;DHT22;38507;53.132;6.394;2023-07-13T09:37:45;20.50;99.90
52209;DHT22;38507;53.132;6.394;2023-07-13T09:40:26;20.50;99.90
52209;DHT22;38507;53.132;6.394;2023-07-13T09:42:54;20.60;99.90
52209;DHT22;38507;53.132;6.394;2023-07-13T09:45:30;20.70;99.90
52209;DHT22;38507;53.132;6.394;2023-07-13T09:48:16;20.90;99.90
52209;DHT22;38507;53.132;6.394;2023-07-13T09:50:42;20.90;99.90
52209;DHT22;38507;53.132;6.394;2023-07-13T09:53:17;21.00;99.90
52209;DHT22;38507;53.132;6.394;2023-07-13T09:55:45;21.30;99.90
52209;DHT22;38507;53.132;6.394;2023-07-13T09:58:21;21.60;99.90
52209;DHT22;38507;53.132;6.394;2023-07-13T10:01:03;21.70;99.90
52209;DHT22;38507;53.132;6.394;2023-07-13T10:03:34;21.90;99.90
52209;DHT22;38507;53.132;6.394;2023-07-13T10:06:16;22.20;99.90
52209;DHT22;38507;53.132;6.394;2023-07-13T10:08:45;22.00;99.90
52209;DHT22;38507;53.132;6.394;2023-07-13T10:13:55;21.60;99.90
52209;DHT22;38507;53.132;6.394;2023-07-13T10:16:26;21.40;99.90
52209;DHT22;38507;53.132;6.394;2023-07-13T10:18:58;21.40;99.90
52209;DHT22;38507;53.132;6.394;2023-07-13T10:21:30;21.50;99.90
52209;DHT22;38507;53.132;6.394;2023-07-13T10:24:04;21.70;99.90
52209;DHT22;38507;53.132;6.394;2023-07-13T10:26:33;21.90;99.90
52209;DHT22;38507;53.132;6.394;2023-07-13T10:29:06;22.20;99.90
52209;DHT22;38507;53.132;6.394;2023-07-13T10:31:35;22.40;99.90
52209;DHT22;38507;53.132;6.394;2023-07-13T10:34:02;22.30;99.90
52209;DHT22;38507;53.132;6.394;2023-07-13T10:36:41;22.30;99.90
52209;DHT22;38507;53.132;6.394;2023-07-13T10:39:21;22.20;99.90
52209;DHT22;38507;53.132;6.394;2023-07-13T10:42:03;21.70;99.90
52209;DHT22;38507;53.132;6.394;2023-07-13T10:44:32;21.50;99.90
52209;DHT22;38507;53.132;6.394;2023-07-13T10:47:04;21.30;99.90
52209;DHT22;38507;53.132;6.394;2023-07-13T10:49:32;21.10;99.90
52209;DHT22;38507;53.132;6.394;2023-07-13T10:51:59;21.50;99.90
52209;DHT22;38507;53.132;6.394;2023-07-13T10:54:32;21.80;99.90
52209;DHT22;38507;53.132;6.394;2023-07-13T10:57:17;22.00;99.90
52209;DHT22;38507;53.132;6.394;2023-07-13T11:00:16;22.40;99.90
52209;DHT22;38507;53.132;6.394;2023-07-13T11:02:43;22.50;99.90
52209;DHT22;38507;53.132;6.394;2023-07-13T11:08:03;22.30;99.90
52209;DHT22;38507;53.132;6.394;2023-07-13T11:10:53;22.40;99.90
52209;DHT22;38507;53.132;6.394;2023-07-13T11:21:28;22.70;99.90
52209;DHT22;38507;53.132;6.394;2023-07-13T11:24:03;22.40;99.90
52209;DHT22;38507;53.132;6.394;2023-07-13T11:31:58;23.10;99.90
52209;DHT22;38507;53.132;6.394;2023-07-13T11:34:29;23.20;99.90
52209;DHT22;38507;53.132;6.394;2023-07-13T11:36:56;22.90;99.90
52209;DHT22;38507;53.132;6.394;2023-07-13T11:39:32;22.60;99.90
52209;DHT22;38507;53.132;6.394;2023-07-13T11:42:01;22.80;99.90
52209;DHT22;38507;53.132;6.394;2023-07-13T11:44:29;22.90;99.90
52209;DHT22;38507;53.132;6.394;2023-07-13T11:46:58;22.70;99.90
52209;DHT22;38507;53.132;6.394;2023-07-13T11:49:31;22.80;99.90
52209;DHT22;38507;53.132;6.394;2023-07-13T11:51:58;23.20;99.90
52209;DHT22;38507;53.132;6.394;2023-07-13T11:54:30;23.30;99.90
52209;DHT22;38507;53.132;6.394;2023-07-13T11:56:59;23.20;99.90
52209;DHT22;38507;53.132;6.394;2023-07-13T11:59:29;23.10;99.90
52209;DHT22;38507;53.132;6.394;2023-07-13T12:01:55;22.90;99.90
52209;DHT22;38507;53.132;6.394;2023-07-13T12:04:27;22.90;99.90
52209;DHT22;38507;53.132;6.394;2023-07-13T12:07:03;22.80;99.80
52209;DHT22;38507;53.132;6.394;2023-07-13T12:09:29;22.50;99.20
52209;DHT22;38507;53.132;6.394;2023-07-13T12:11:57;22.50;99.90
52209;DHT22;38507;53.132;6.394;2023-07-13T12:14:25;22.60;99.90
52209;DHT22;38507;53.132;6.394;2023-07-13T12:16:52;22.80;99.90
52209;DHT22;38507;53.132;6.394;2023-07-13T12:19:21;22.90;99.90
52209;DHT22;38507;53.132;6.394;2023-07-13T12:21:48;22.90;99.90
52209;DHT22;38507;53.132;6.394;2023-07-13T12:24:18;23.00;99.80
52209;DHT22;38507;53.132;6.394;2023-07-13T12:26:44;23.10;99.00
52209;DHT22;38507;53.132;6.394;2023-07-13T12:29:16;23.10;99.30
52209;DHT22;38507;53.132;6.394;2023-07-13T12:31:44;23.30;99.10
52209;DHT22;38507;53.132;6.394;2023-07-13T12:34:16;23.40;99.20
52209;DHT22;38507;53.132;6.394;2023-07-13T12:41:52;23.50;99.80
52209;DHT22;38507;53.132;6.394;2023-07-13T12:44:31;23.20;99.30
52209;DHT22;38507;53.132;6.394;2023-07-13T12:46:59;22.90;98.70
52209;DHT22;38507;53.132;6.394;2023-07-13T12:49:31;22.50;98.40
52209;DHT22;38507;53.132;6.394;2023-07-13T12:52:02;22.70;99.00
52209;DHT22;38507;53.132;6.394;2023-07-13T12:54:29;23.00;99.90
52209;DHT22;38507;53.132;6.394;2023-07-13T12:56:57;22.80;99.50
52209;DHT22;38507;53.132;6.394;2023-07-13T12:59:27;22.60;99.60
52209;DHT22;38507;53.132;6.394;2023-07-13T13:01:54;22.70;99.50
52209;DHT22;38507;53.132;6.394;2023-07-13T13:04:21;22.90;99.30
52209;DHT22;38507;53.132;6.394;2023-07-13T13:06:47;23.10;99.40
52209;DHT22;38507;53.132;6.394;2023-07-13T13:09:15;23.10;99.20
52209;DHT22;38507;53.132;6.394;2023-07-13T13:11:41;23.00;98.10
52209;DHT22;38507;53.132;6.394;2023-07-13T13:14:08;22.90;99.20
52209;DHT22;38507;53.132;6.394;2023-07-13T13:21:39;23.40;98.70
52209;DHT22;38507;53.132;6.394;2023-07-13T13:24:17;23.40;99.10
52209;DHT22;38507;53.132;6.394;2023-07-13T13:26:44;23.60;99.50
52209;DHT22;38507;53.132;6.394;2023-07-13T13:29:16;23.70;99.60
52209;DHT22;38507;53.132;6.394;2023-07-13T13:31:43;23.50;98.70
52209;DHT22;38507;53.132;6.394;2023-07-13T13:34:14;23.40;98.80
52209;DHT22;38507;53.132;6.394;2023-07-13T13:36:41;23.50;98.70
52209;DHT22;38507;53.132;6.394;2023-07-13T13:39:27;23.80;99.00
52209;DHT22;38507;53.132;6.394;2023-07-13T13:41:53;23.80;98.50
52209;DHT22;38507;53.132;6.394;2023-07-13T13:44:20;23.90;98.40
52209;DHT22;38507;53.132;6.394;2023-07-13T13:46:48;23.80;98.50
52209;DHT22;38507;53.132;6.394;2023-07-13T13:49:21;24.00;98.90
52209;DHT22;38507;53.132;6.394;2023-07-13T13:51:47;24.10;98.60
52209;DHT22;38507;53.132;6.394;2023-07-13T13:54:15;23.90;98.30
52209;DHT22;38507;53.132;6.394;2023-07-13T13:56:46;23.90;97.30
52209;DHT22;38507;53.132;6.394;2023-07-13T13:59:12;23.80;98.50
52209;DHT22;38507;53.132;6.394;2023-07-13T14:01:39;24.00;98.50
52209;DHT22;38507;53.132;6.394;2023-07-13T14:04:06;23.90;97.70
52209;DHT22;38507;53.132;6.394;2023-07-13T14:06:33;24.00;97.50
52209;DHT22;38507;53.132;6.394;2023-07-13T14:08:59;23.80;97.80
52209;DHT22;38507;53.132;6.394;2023-07-13T14:11:25;23.80;97.30
52209;DHT22;38507;53.132;6.394;2023-07-13T14:13:54;23.90;97.90
52209;DHT22;38507;53.132;6.394;2023-07-13T14:16:22;24.00;97.80
52209;DHT22;38507;53.132;6.394;2023-07-13T14:18:49;24.10;97.90
52209;DHT22;38507;53.132;6.394;2023-07-13T14:21:20;23.90;98.40
52209;DHT22;38507;53.132;6.394;2023-07-13T14:23:47;23.80;97.50
52209;DHT22;38507;53.132;6.394;2023-07-13T14:26:15;23.60;97.10
52209;DHT22;38507;53.132;6.394;2023-07-13T14:28:50;23.10;97.90
52209;DHT22;38507;53.132;6.394;2023-07-13T14:31:16;23.00;97.60
52209;DHT22;38507;53.132;6.394;2023-07-13T14:33:43;22.90;98.40
52209;DHT22;38507;53.132;6.394;2023-07-13T14:36:21;23.20;98.30
52209;DHT22;38507;53.132;6.394;2023-07-13T14:38:48;23.40;98.50
52209;DHT22;38507;53.132;6.394;2023-07-13T14:41:14;23.20;98.60
52209;DHT22;38507;53.132;6.394;2023-07-13T14:43:39;23.30;98.70
52209;DHT22;38507;53.132;6.394;2023-07-13T14:46:05;23.50;99.00
52209;DHT22;38507;53.132;6.394;2023-07-13T14:48:32;23.50;98.80
52209;DHT22;38507;53.132;6.394;2023-07-13T14:50:58;23.60;99.10
52209;DHT22;38507;53.132;6.394;2023-07-13T14:53:26;23.80;98.80
52209;DHT22;38507;53.132;6.394;2023-07-13T14:55:55;23.80;97.80
52209;DHT22;38507;53.132;6.394;2023-07-13T14:58:21;23.90;98.20
52209;DHT22;38507;53.132;6.394;2023-07-13T15:00:50;23.60;98.00
52209;DHT22;38507;53.132;6.394;2023-07-13T15:03:23;23.40;98.10
52209;DHT22;38507;53.132;6.394;2023-07-13T15:05:51;23.00;98.00
52209;DHT22;38507;53.132;6.394;2023-07-13T15:08:18;22.70;98.30
52209;DHT22;38507;53.132;6.394;2023-07-13T15:10:44;22.70;98.20
52209;DHT22;38507;53.132;6.394;2023-07-13T15:13:15;22.90;98.50
52209;DHT22;38507;53.132;6.394;2023-07-13T15:15:43;23.00;98.50
52209;DHT22;38507;53.132;6.394;2023-07-13T15:18:14;22.90;98.20
52209;DHT22;38507;53.132;6.394;2023-07-13T15:20:43;22.70;97.90
52209;DHT22;38507;53.132;6.394;2023-07-13T15:23:11;22.80;98.30
52209;DHT22;38507;53.132;6.394;2023-07-13T15:25:37;22.80;98.00
52209;DHT22;38507;53.132;6.394;2023-07-13T15:28:04;23.10;98.20
52209;DHT22;38507;53.132;6.394;2023-07-13T15:30:34;23.10;98.00
52209;DHT22;38507;53.132;6.394;2023-07-13T15:33:10;22.90;98.10
52209;DHT22;38507;53.132;6.394;2023-07-13T15:35:36;22.90;98.80
52209;DHT22;38507;53.132;6.394;2023-07-13T15:38:12;22.60;99.20
52209;DHT22;38507;53.132;6.394;2023-07-13T15:40:39;22.70;99.40
52209;DHT22;38507;53.132;6.394;2023-07-13T15:43:11;22.70;99.20
52209;DHT22;38507;53.132;6.394;2023-07-13T15:45:37;22.90;99.40
52209;DHT22;38507;53.132;6.394;2023-07-13T15:48:20;22.90;99.40
52209;DHT22;38507;53.132;6.394;2023-07-13T15:50:48;22.70;99.30
52209;DHT22;38507;53.132;6.394;2023-07-13T15:53:27;22.70;99.60
52209;DHT22;38507;53.132;6.394;2023-07-13T15:55:54;22.80;99.60
52209;DHT22;38507;53.132;6.394;2023-07-13T15:58:20;22.80;99.10
52209;DHT22;38507;53.132;6.394;2023-07-13T16:00:47;22.80;99.40
52209;DHT22;38507;53.132;6.394;2023-07-13T16:03:17;22.80;99.60
52209;DHT22;38507;53.132;6.394;2023-07-13T16:05:42;22.80;99.70
52209;DHT22;38507;53.132;6.394;2023-07-13T16:08:26;23.10;99.90
52209;DHT22;38507;53.132;6.394;2023-07-13T16:10:52;23.00;99.90
52209;DHT22;38507;53.132;6.394;2023-07-13T16:13:20;22.90;99.90